Time;durP1;ratioP1;P1;durP2;ratioP2;P2;SDS_P1;SDS_P2;PMS_P1;PMS_P2;Temp;Humidity;BMP_temperature;BMP_pressure;BME280_temperature;BME280_humidity;BME280_pressure;Samples;Min_cycle;Max_cycle;Signal;HPM_P1;HPM_P2
2023/08/15 00:06:51;;;;;;;9.67;4.93;;;;;;;20.26;63.95;100313.78;30600530;28;112551;-69
2023/08/15 00:21:51;;;;;;;8.03;4.80;;;;;;;20.23;64.61;100308.84;30598771;28;97822;-69
2023/08/15 00:36:51;;;;;;;11.80;5.80;;;;;;;20.33;64.05;100288.50;30595609;28;97329;-70
2023/08/15 00:51:52;;;;;;;9.50;4.73;;;;;;;20.15;64.23;100284.81;30596323;28;103988;-69
2023/08/15 01:06:52;;;;;;;8.77;4.80;;;;;;;19.98;64.84;100284.66;30595934;28;96839;-69
2023/08/15 01:21:55;;;;;;;6.90;4.67;;;;;;;20.15;64.80;100278.56;30594874;28;97646;-69
2023/08/15 01:37:03;;;;;;;8.37;5.07;;;;;;;20.35;64.86;100278.28;30594849;28;97131;-70
2023/08/15 01:52:03;;;;;;;10.67;4.60;;;;;;;20.12;65.00;100278.00;30601431;28;97617;-69
2023/08/15 02:07:04;;;;;;;9.50;5.17;;;;;;;20.20;64.92;100301.19;30612180;28;97463;-69
2023/08/15 02:22:04;;;;;;;9.13;4.53;;;;;;;20.07;64.96;100288.69;30610862;28;96766;-70
2023/08/15 02:37:04;;;;;;;7.30;4.80;;;;;;;19.94;64.90;100278.88;30607274;28;97502;-70
2023/08/15 02:52:05;;;;;;;5.73;4.60;;;;;;;19.50;64.69;100285.47;30607589;28;116519;-70
2023/08/15 03:07:05;;;;;;;12.15;5.03;;;;;;;19.14;65.62;100289.84;30605984;28;97220;-69
2023/08/15 03:22:08;;;;;;;11.20;5.03;;;;;;;18.81;66.28;100288.25;30604099;28;97803;-69
2023/08/15 03:37:09;;;;;;;9.50;5.47;;;;;;;18.56;66.67;100292.66;30602016;28;97447;-69
2023/08/15 03:52:09;;;;;;;6.85;5.38;;;;;;;18.39;67.40;100305.03;30601168;28;96789;-69
2023/08/15 04:07:10;;;;;;;6.80;5.35;;;;;;;18.33;67.48;100305.88;30601667;28;96755;-69
2023/08/15 04:22:10;;;;;;;10.02;4.45;;;;;;;18.33;68.42;100322.91;30598696;28;96911;-69
2023/08/15 04:37:10;;;;;;;7.30;4.90;;;;;;;18.52;68.41;100331.91;30597486;28;97145;-69
2023/08/15 04:52:15;;;;;;;7.20;4.95;;;;;;;19.04;68.11;100328.16;30595264;28;97230;-69
2023/08/15 05:07:15;;;;;;;6.00;4.80;;;;;;;19.69;67.56;100330.34;30594684;28;96679;-69
2023/08/15 05:22:15;;;;;;;8.20;4.57;;;;;;;20.28;66.48;100336.03;30594950;28;97286;-69
2023/08/15 05:37:16;;;;;;;6.73;5.10;;;;;;;21.09;65.49;100346.38;30611160;28;96879;-69
2023/08/15 05:52:16;;;;;;;5.37;4.37;;;;;;;21.91;64.44;100358.16;30605754;28;100436;-71
2023/08/15 06:07:16;;;;;;;4.97;4.20;;;;;;;22.91;62.04;100357.72;30601831;28;97734;-68
2023/08/15 06:22:17;;;;;;;;;;;;;;;24.02;59.76;100376.06;30603229;28;97968;-68
2023/08/15 06:37:17;;;;;;;5.45;3.75;;;;;;;24.41;56.70;100367.75;30609733;28;97337;-68
2023/08/15 06:52:17;;;;;;;4.60;3.67;;;;;;;25.39;54.18;100352.97;30629632;28;107797;-70
2023/08/15 07:07:17;;;;;;;7.28;3.13;;;;;;;26.15;51.30;100353.53;30587626;28;97521;-71
2023/08/15 07:22:18;;;;;;;6.28;3.10;;;;;;;26.88;48.12;100368.84;30599525;28;106651;-71
2023/08/15 07:37:18;;;;;;;6.03;3.88;;;;;;;27.39;46.46;100357.00;30600696;28;96684;-71
2023/08/15 07:52:19;;;;;;;6.88;3.60;;;;;;;27.99;45.99;100353.44;30602960;28;97283;-78
2023/08/15 08:07:19;;;;;;;7.20;2.92;;;;;;;28.36;44.76;100380.34;30590282;28;98463;-74
2023/08/15 08:22:19;;;;;;;5.00;3.40;;;;;;;28.50;42.60;100379.69;30618911;28;103706;-66
2023/08/15 08:37:21;;;;;;;6.80;2.80;;;;;;;29.13;41.59;100364.34;30628212;28;97736;-67
2023/08/15 08:52:21;;;;;;;5.35;2.97;;;;;;;29.98;38.45;100360.06;30609670;28;115927;-72
2023/08/15 09:07:22;;;;;;;5.38;2.50;;;;;;;31.51;35.60;100343.16;30581716;28;98063;-70
2023/08/15 09:22:24;;;;;;;4.50;2.80;;;;;;;33.26;33.20;100351.91;30588960;28;98388;-67
2023/08/15 09:37:24;;;;;;;5.40;2.33;;;;;;;41.02;21.74;100339.22;30697435;28;97185;-71
2023/08/15 09:52:27;;;;;;;4.38;2.22;;;;;;;39.42;23.79;100340.88;30709099;28;97137;-71
2023/08/15 10:07:31;;;;;;;5.03;2.57;;;;;;;38.06;25.13;100338.13;30708940;28;97172;-73
2023/08/15 10:22:35;;;;;;;;;;;;;;;36.86;26.53;100327.25;30726339;28;96929;-81
2023/08/15 10:37:38;;;;;;;3.90;2.53;;;;;;;35.33;27.41;100322.81;30730522;28;97360;-74
2023/08/15 10:52:39;;;;;;;3.77;2.80;;;;;;;34.51;29.08;100314.66;30727710;28;97399;-69
2023/08/15 11:07:41;;;;;;;5.18;3.00;;;;;;;34.62;28.83;100312.34;30703835;28;96620;-74
2023/08/15 11:22:42;;;;;;;3.60;2.40;;;;;;;35.20;27.88;100301.69;30597973;28;97236;-72
2023/08/15 11:37:42;;;;;;;3.33;2.40;;;;;;;35.18;26.50;100290.16;30599334;28;97865;-79
2023/08/15 11:52:43;;;;;;;4.15;2.35;;;;;;;35.15;26.97;100285.28;30600412;28;98889;-69
2023/08/15 12:07:45;;;;;;;6.20;2.47;;;;;;;35.86;26.11;100269.84;30598607;28;96679;-74
2023/08/15 12:22:45;;;;;;;4.70;2.23;;;;;;;35.88;26.10;100256.44;30594059;28;97160;-76
2023/08/15 12:37:45;;;;;;;6.05;2.90;;;;;;;35.67;26.81;100235.06;30596586;28;116532;-74
2023/08/15 12:52:47;;;;;;;3.45;2.38;;;;;;;36.19;26.96;100232.97;30594167;28;97336;-70
2023/08/15 13:07:47;;;;;;;4.57;2.60;;;;;;;36.13;27.15;100209.38;30593611;28;97265;-70
2023/08/15 13:22:47;;;;;;;3.40;2.30;;;;;;;35.94;26.62;100207.13;30591371;28;108271;-72
2023/08/15 13:37:48;;;;;;;4.90;2.15;;;;;;;35.39;24.57;100190.50;30592372;28;110475;-72
2023/08/15 13:52:48;;;;;;;4.57;2.13;;;;;;;34.92;25.13;100197.81;30604813;28;97489;-72
2023/08/15 14:07:48;;;;;;;5.05;2.53;;;;;;;34.64;25.38;100189.16;30610257;28;97502;-74
2023/08/15 14:22:49;;;;;;;4.47;2.17;;;;;;;34.33;26.14;100195.00;30607982;28;106959;-71
2023/08/15 14:37:49;;;;;;;3.55;2.20;;;;;;;34.46;26.89;100173.78;30600626;28;97885;-74
2023/08/15 14:52:49;;;;;;;4.10;1.98;;;;;;;33.61;25.16;100156.72;30600040;28;96915;-75
2023/08/15 15:07:50;;;;;;;3.08;2.03;;;;;;;33.26;25.31;100142.97;30597449;28;97787;-75
2023/08/15 15:22:50;;;;;;;3.13;1.92;;;;;;;33.00;25.58;100123.63;30596803;28;97236;-74
2023/08/15 15:37:50;;;;;;;4.57;2.00;;;;;;;32.72;26.72;100127.47;30593175;28;109985;-72
2023/08/15 15:52:50;;;;;;;4.57;2.47;;;;;;;32.37;27.63;100121.00;30594002;28;108395;-72
2023/08/15 16:07:51;;;;;;;4.15;2.25;;;;;;;32.11;28.23;100124.44;30590139;28;99331;-71
2023/08/15 16:22:51;;;;;;;5.65;2.50;;;;;;;31.95;28.33;100151.56;30588616;28;97434;-71
2023/08/15 16:37:52;;;;;;;3.95;2.38;;;;;;;31.54;28.59;100147.88;30586990;28;97513;-70
2023/08/15 16:52:53;;;;;;;4.60;2.73;;;;;;;31.23;29.53;100158.78;30596601;28;97374;-70
2023/08/15 17:07:53;;;;;;;7.03;2.70;;;;;;;30.83;30.74;100166.78;30593963;28;114042;-71
2023/08/15 17:22:53;;;;;;;4.63;2.55;;;;;;;30.46;32.08;100185.13;30598682;28;96846;-71
2023/08/15 17:37:54;;;;;;;5.60;2.80;;;;;;;30.20;33.48;100215.78;30614662;28;105776;-71
2023/08/15 17:52:54;;;;;;;7.22;3.40;;;;;;;29.77;34.87;100226.91;30611420;28;117324;-71
2023/08/15 18:07:54;;;;;;;13.05;4.32;;;;;;;29.41;36.51;100232.91;30611622;28;104716;-70
2023/08/15 18:22:55;;;;;;;10.40;6.15;;;;;;;28.95;37.67;100248.00;30608116;28;114749;-71
2023/08/15 18:37:55;;;;;;;16.33;5.93;;;;;;;28.46;39.17;100247.13;30608101;28;104539;-70
2023/08/15 18:52:55;;;;;;;8.38;5.97;;;;;;;27.86;40.83;100242.69;30607331;28;97451;-70
2023/08/15 19:07:56;;;;;;;6.25;4.93;;;;;;;26.93;42.62;100243.13;30605643;28;103764;-69
2023/08/15 19:22:56;;;;;;;13.73;4.40;;;;;;;26.20;44.56;100259.88;30603792;28;97471;-70
2023/08/15 19:37:56;;;;;;;5.30;4.53;;;;;;;25.61;45.85;100265.50;30604307;28;96825;-70
2023/08/15 19:52:57;;;;;;;7.45;4.53;;;;;;;25.11;47.42;100267.75;30600023;28;97626;-70
2023/08/15 20:07:57;;;;;;;13.05;4.75;;;;;;;24.67;49.01;100257.97;30599470;28;96737;-70
2023/08/15 20:22:57;;;;;;;8.38;4.88;;;;;;;24.24;50.44;100267.97;30596402;28;118216;-69
2023/08/15 20:37:58;;;;;;;6.78;5.03;;;;;;;23.88;51.71;100278.53;30597269;28;97125;-70
2023/08/15 20:52:58;;;;;;;8.57;5.93;;;;;;;23.55;53.15;100280.34;30594326;28;115282;-70
2023/08/15 21:07:58;;;;;;;13.52;5.75;;;;;;;23.18;54.27;100280.94;30594890;28;96791;-70
2023/08/15 21:22:59;;;;;;;20.27;7.28;;;;;;;22.95;55.38;100273.81;30591960;28;97231;-69
2023/08/15 21:37:59;;;;;;;9.82;6.25;;;;;;;22.74;55.78;100275.44;30593762;28;102371;-68
2023/08/15 21:53:00;;;;;;;;;;;;;;;22.51;56.89;100276.44;30593791;28;97616;-70
2023/08/15 22:08:00;;;;;;;8.10;6.60;;;;;;;22.65;57.88;100277.75;30600286;28;97570;-71
2023/08/15 22:23:01;;;;;;;;;;;;;;;22.76;58.04;100274.13;30610423;28;96844;-71
2023/08/15 22:38:01;;;;;;;11.77;6.90;;;;;;;22.58;58.21;100277.94;30611234;28;97013;-72
2023/08/15 22:53:01;;;;;;;;;;;;;;;22.48;58.59;100277.75;30610126;28;97291;-71
2023/08/15 23:08:02;;;;;;;9.70;7.10;;;;;;;22.32;59.01;100276.66;30609049;28;97037;-72
2023/08/15 23:23:02;;;;;;;7.57;6.55;;;;;;;22.06;60.08;100269.97;30604285;28;97049;-72
2023/08/15 23:38:03;;;;;;;9.38;6.90;;;;;;;22.07;60.16;100277.06;30604643;28;97313;-71
2023/08/15 23:53:03;;;;;;;8.77;7.20;;;;;;;21.58;60.65;100267.50;30602592;28;97094;-71
